x

Boston 16 Nm East Of Boston, Ma (44013) Wave Buoy

10:50am - Sun 1st Mar 2015 All times are EST. -5 hours from GMT.

  • Sig Wave height 1.0ft
  • Swell Direction
  • Peak Period 9s
  • Average Period 7s
  • Wind
    7mph, 11mph gusts
  • Sea Temp 37°f
  • Air Temp 26°f
  • Sea Pressure 1037mb
  • Boston 16 Nm East Of Boston, Ma
  • Boston 16 Nm East Of Boston, Ma

More Historic Weather Station data

Upgrade to MSW Pro to gain access to the past 30 days of data for over 8000 Wavebouys and Weather Stations around the globe.

Join Pro

Comparision Forecast

View Surf forecast
   
Sun 03/01 10:50am 1ft 9s 7s 7 11 mph 1037mb 37f 26f
9:50am 1ft 9s 6s 7 9 mph 1037.6mb 37f 24f
8:50am 1ft 10s 5s 4 7 mph 1038.3mb 37f 23f
7:50am 1.3ft 8s 7s 9 11 mph 1039.4mb 37f 24f
6:50am 1ft 8s 6s 4 7 mph 1038.9mb 37f 25f
5:50am 1.3ft 10s 6s 4 7 mph 1038.6mb 37f 24f
4:50am 1.3ft 8s 5s 7
mph
1038.9mb 37f 25f
3:50am 1.3ft 10s 5s 9 11 mph 1039.2mb 37f 25f
2:50am 1.6ft 10s 4s 9 11 mph 1039.2mb 37f 26f
1:50am 1.6ft 8s 4s 11 13 mph 1039.7mb 37f 26f
12:50am 2ft 10s 4s 13 16 mph 1039.9mb 37f 27f
Sat 02/28 11:50pm 1.6ft 10s 4s 13 18 mph 1039.7mb 37f 27f
10:50pm 1.6ft 9s 4s 13 18 mph 1039.7mb 37f 28f
9:50pm 1.6ft 10s 4s 16 18 mph 1039.9mb 37f 28f
8:50pm 1.6ft 10s 7s 13 16 mph 1039.7mb 37f 29f
7:50pm 1.6ft 9s 7s 9 11 mph 1039.6mb 37f 29f
6:50pm 1.6ft 9s 7s 9 11 mph 1039.6mb 37f 28f
5:50pm 2ft 10s 7s 7 11 mph 1039.3mb 37f 28f
4:50pm 2ft 9s 7s 9 11 mph 1039.1mb 37f 30f
3:50pm 2ft 9s 6s 9 11 mph 1039.3mb 37f 28f
2:50pm 2.5ft 8s 6s 11 13 mph 1039.5mb 37f 26f
1:50pm 2ft 9s 6s 13 18 mph 1040mb 37f 25f
12:50pm 2ft 9s 6s 11 13 mph 1040.8mb 37f 22f
11:50am 2.5ft 9s 5s 9 11 mph 1041.2mb 37f 20f
10:50am 2.5ft 10s 5s 9 11 mph 1041.3mb 37f 19f
9:50am 3ft 10s 5s 9 18 mph 1041.2mb 37f 18f
8:50am 2.5ft 10s 4s 13 18 mph 1040.8mb 37f 18f
7:50am 3ft 10s 4s 18 22 mph 1040.1mb 37f 18f
6:50am 3ft 9s 4s 18 22 mph 1039.4mb 37f 18f
5:50am 3.5ft 10s 4s 18 22 mph 1038.3mb 37f 19f
4:50am 3.5ft 10s 5s 18 22 mph 1037.2mb 37f 19f
3:50am 3.5ft 9s 4s 20 25 mph 1036.4mb 37f 20f
2:50am 3.5ft 10s 5s 20 25 mph 1035.8mb 37f 21f
1:50am 3.5ft 10s 4s 20 22 mph 1035.6mb 37f 21f
12:50am 3.5ft 10s 5s 20 25 mph 1034.7mb 37f 23f
Fri 02/27 11:50pm 3.5ft 11s 5s 20 22 mph 1033.9mb 37f 24f
10:50pm 3.5ft 9s 5s 16 18 mph 1033.4mb 37f 25f
9:50pm 3ft 11s 6s 13 18 mph 1032.7mb 37f 25f
8:50pm 3.5ft 11s 7s 11 13 mph 1031.6mb 37f 26f
7:50pm 3.5ft 11s 7s 9 13 mph 1030.8mb 37f 26f
6:50pm 3ft 11s 7s 7 9 mph 1030.3mb 37f 26f
5:50pm 3.5ft 11s 7s  -  2 mph 1029.4mb 37f 25f
4:50pm 3.5ft 11s 6s 2 7 mph 1028.6mb 37f 26f
3:50pm 3.5ft 11s 6s 2 4 mph 1028.3mb 37f 25f
2:50pm 4ft 11s 7s 4 9 mph 1028.1mb 37f 23f
1:50pm 3.5ft 11s 6s 7 11 mph 1027.7mb 37f 22f
12:50pm 3.5ft 10s 6s 11 13 mph 1027.9mb 37f 21f
11:50am 3.5ft 10s 6s 11 16 mph 1028mb 37f 20f
10:50am 3.5ft 11s 6s 13 18 mph 1027.8mb 37f 19f
9:50am 3.5ft 10s 5s 13 16 mph 1027.5mb 37f 18f
8:50am 4ft 10s 5s 18 22 mph 1027.1mb 37f 18f
7:50am 3.5ft 11s 4s 18 22 mph 1026.5mb 37f 19f
6:50am 3.5ft 11s 4s 18 22 mph 1025mb 37f 19f
5:50am 3.5ft 11s 5s 18 25 mph 1024.2mb 36f 19f
4:50am 3.5ft 11s 4s 16 20 mph 1023.2mb 36f 20f
3:50am 3.5ft 11s 5s 16 20 mph 1022.1mb 36f 20f
2:50am 3.5ft 6s 5s 16 20 mph 1021.3mb 36f 21f
1:50am 3.5ft 6s 5s 16 18 mph 1021mb 36f 22f
12:50am 3.5ft 10s 5s 9 13 mph 1020.2mb 36f 23f
Thu 02/26 11:50pm 3.5ft 6s 5s 9 11 mph 1020mb 36f 24f
10:50pm 3.5ft 6s 5s 11 16 mph 1019.9mb 36f 24f
9:50pm 4ft 6s 5s 9 11 mph 1018.9mb 36f 24f
8:50pm 4ft 6s 5s 13 16 mph 1017.9mb 36f 24f
7:50pm 4.5ft 6s 5s 13 18 mph 1017.1mb 36f 23f
6:50pm 4ft 6s 5s 16 18 mph 1016.5mb 36f 23f
5:50pm 4.5ft 6s 5s 18 25 mph 1015.9mb 36f 23f
4:50pm 5ft 6s 5s 20 25 mph 1015.6mb 36f 23f
3:50pm 5ft 6s 5s 22 27 mph 1014.8mb 36f 24f
2:50pm 5ft 5s 5s 22 27 mph 1014.4mb 36f 23f
1:50pm 5ft 5s 5s 20 25 mph 1014.9mb 36f 24f
12:50pm 4.5ft 4s 4s 25 29 mph 1015.8mb 36f 23f
11:50am 3.5ft 4s 4s 22 27 mph 1016.8mb 36f 25f
10:50am 3ft 9s 4s 18 22 mph 1017.1mb 36f 25f
9:50am 2.5ft 10s 4s 16 18 mph 1018mb 36f 25f
8:50am 2.5ft 10s 4s 16 20 mph 1018.8mb 36f 24f
7:50am 2.5ft 10s 4s 16 20 mph 1018.4mb 36f 22f
6:50am 2.5ft 4s 4s 16 20 mph 1018.3mb 36f 21f
5:50am 2.5ft 3s 4s 18 22 mph 1017.7mb 36f 21f
4:50am 2.5ft 3s 4s 20 22 mph 1017.4mb 36f 21f
3:50am 2.5ft 3s 4s 20 25 mph 1017.5mb 36f 22f
2:50am 3ft 9s 4s 20 25 mph 1017.3mb 36f 23f
1:50am 2.5ft 4s 4s 22 27 mph 1017.1mb 36f 24f
12:50am 2.5ft 4s 4s 22 27 mph 1016.5mb 36f 25f
Wed 02/25 11:50pm 2.5ft 4s 4s 22 27 mph 1015.4mb 36f 26f
10:50pm 2.5ft 4s 4s 25 27 mph 1015.9mb 36f 27f
9:50pm 2.5ft 4s 4s 22 29 mph 1015.7mb 36f 28f
8:50pm 3ft 4s 4s 25 29 mph 1013.8mb 36f 29f
7:50pm 2.5ft 4s 4s 25 31 mph 1011.9mb 36f 31f
6:50pm 2.5ft 4s 4s 27 31 mph 1010.5mb 36f 33f
5:50pm 2.5ft 4s 4s 20 25 mph 1009.5mb 36f 34f